Time;durP1;ratioP1;P1;durP2;ratioP2;P2;SDS_P1;SDS_P2;PMS_P1;PMS_P2;Temp;Humidity;BMP_temperature;BMP_pressure;BME280_temperature;BME280_humidity;BME280_pressure;Samples;Min_cycle;Max_cycle;Signal;HPM_P1;HPM_P2
2023/05/30 00:02:17;;;;;;;5.15;1.85;;;9.30;74.30;;;;;;5111597;28;20075;-55
2023/05/30 00:04:42;;;;;;;4.18;1.50;;;9.20;74.60;;;;;;5090877;28;20020;-55
2023/05/30 00:07:08;;;;;;;3.50;1.52;;;9.20;74.80;;;;;;5111259;28;20118;-55
2023/05/30 00:09:33;;;;;;;4.50;1.90;;;9.20;76.60;;;;;;5090650;27;20054;-52
2023/05/30 00:12:00;;;;;;;5.50;1.77;;;9.10;76.50;;;;;;5104836;28;20514;-55
2023/05/30 00:14:26;;;;;;;4.25;1.55;;;9.10;77.00;;;;;;5106923;28;20088;-52
2023/05/30 00:16:52;;;;;;;6.72;2.10;;;9.10;77.40;;;;;;5101610;28;20074;-53
2023/05/30 00:19:19;;;;;;;5.00;2.05;;;9.10;78.30;;;;;;5111095;28;20026;-53
2023/05/30 00:21:45;;;;;;;1.98;1.42;;;9.10;78.60;;;;;;5108966;28;20035;-54
2023/05/30 00:24:11;;;;;;;9.30;2.45;;;9.10;79.80;;;;;;5091234;28;20130;-53
2023/05/30 00:26:37;;;;;;;3.42;2.00;;;9.10;79.30;;;;;;5088781;28;20655;-52
2023/05/30 00:29:03;;;;;;;5.75;2.08;;;9.10;79.10;;;;;;5109805;28;20747;-54
2023/05/30 00:31:30;;;;;;;4.40;1.77;;;9.10;80.10;;;;;;5089143;27;20028;-56
2023/05/30 00:33:55;;;;;;;2.70;1.58;;;9.00;79.70;;;;;;5110254;28;20587;-53
2023/05/30 00:36:21;;;;;;;3.42;1.50;;;9.00;80.60;;;;;;5089107;28;20024;-55
2023/05/30 00:38:47;;;;;;;2.65;1.70;;;9.00;81.50;;;;;;5110050;28;20334;-53
2023/05/30 00:41:12;;;;;;;4.47;1.50;;;9.00;88.70;;;;;;5088709;28;20035;-54
2023/05/30 00:43:38;;;;;;;5.25;1.95;;;8.90;85.80;;;;;;5108427;28;20111;-54
2023/05/30 00:46:04;;;;;;;3.50;1.40;;;8.90;83.90;;;;;;5089226;28;20054;-51
2023/05/30 00:48:29;;;;;;;5.63;1.70;;;8.90;86.00;;;;;;5110023;28;20487;-54
2023/05/30 00:50:56;;;;;;;3.85;2.00;;;8.80;85.10;;;;;;5088577;28;20039;-51
2023/05/30 00:53:22;;;;;;;3.70;2.13;;;8.80;84.70;;;;;;5108305;28;20061;-53
2023/05/30 00:55:49;;;;;;;6.30;2.00;;;8.70;85.50;;;;;;5088908;28;20507;-54
2023/05/30 00:58:15;;;;;;;6.57;2.00;;;8.70;85.50;;;;;;5109763;28;20036;-49
2023/05/30 01:00:41;;;;;;;7.88;2.20;;;8.60;85.50;;;;;;5099792;28;20038;-51
2023/05/30 01:03:08;;;;;;;4.63;1.45;;;8.60;86.60;;;;;;5090310;28;20089;-54
2023/05/30 01:05:34;;;;;;;5.65;1.90;;;8.50;88.10;;;;;;5094010;28;20028;-52
2023/05/30 01:07:59;;;;;;;4.28;1.50;;;8.50;87.70;;;;;;5109556;28;20511;-53
2023/05/30 01:10:25;;;;;;;7.68;2.28;;;8.50;87.60;;;;;;5097294;28;20084;-53
2023/05/30 01:13:17;;;;;;;6.30;1.85;;;8.40;91.40;;;;;;5090120;28;20064;-53
2023/05/30 01:15:54;;;;;;;4.07;1.73;;;8.30;90.80;;;;;;5090446;28;20031;-54
2023/05/30 01:18:27;;;;;;;3.83;1.55;;;8.30;90.30;;;;;;5069392;28;20103;-54
2023/05/30 01:21:00;;;;;;;5.45;1.75;;;8.30;89.70;;;;;;5080448;28;20279;-53
2023/05/30 01:23:47;;;;;;;8.23;1.83;;;8.20;89.10;;;;;;5069388;28;20110;-55
2023/05/30 01:26:31;;;;;;;3.45;1.40;;;8.20;89.80;;;;;;5089208;28;20047;-53
2023/05/30 01:29:02;;;;;;;2.40;1.50;;;8.10;90.20;;;;;;5069021;28;20028;-53
2023/05/30 01:31:28;;;;;;;3.72;1.50;;;8.10;90.60;;;;;;5084574;28;20402;-53
2023/05/30 01:33:55;;;;;;;5.78;1.67;;;8.00;90.60;;;;;;5086263;28;20119;-53
2023/05/30 01:36:21;;;;;;;3.25;1.45;;;8.00;90.50;;;;;;5097859;28;20084;-52
2023/05/30 01:38:46;;;;;;;5.55;1.50;;;7.90;90.70;;;;;;5089036;28;20427;-52
2023/05/30 01:41:21;;;;;;;5.47;1.48;;;7.90;90.90;;;;;;5093693;28;20629;-53
2023/05/30 01:44:04;;;;;;;3.20;1.40;;;7.90;91.10;;;;;;5082635;28;20433;-52
2023/05/30 01:46:35;;;;;;;4.70;1.60;;;7.90;91.60;;;;;;5109151;28;20016;-50
2023/05/30 01:49:07;;;;;;;4.80;1.42;;;7.90;91.60;;;;;;5091928;28;20034;-51
2023/05/30 01:51:42;;;;;;;4.18;1.77;;;7.90;91.80;;;;;;5109214;28;20073;-52
2023/05/30 01:54:12;;;;;;;5.00;1.48;;;7.90;93.10;;;;;;5092343;27;20043;-54
2023/05/30 01:56:39;;;;;;;4.80;1.50;;;8.00;94.10;;;;;;5107817;28;20630;-50
2023/05/30 01:59:07;;;;;;;4.97;1.50;;;8.00;95.10;;;;;;5092379;28;20231;-53
2023/05/30 02:01:33;;;;;;;3.20;1.42;;;8.00;93.10;;;;;;5109105;28;20088;-55
2023/05/30 02:03:59;;;;;;;4.80;1.60;;;8.10;92.60;;;;;;5091742;28;20023;-55
2023/05/30 02:06:25;;;;;;;8.43;1.98;;;8.10;92.40;;;;;;5106545;28;20027;-50
2023/05/30 02:08:50;;;;;;;2.75;1.40;;;8.10;92.20;;;;;;5074034;28;20385;-54
2023/05/30 02:11:17;;;;;;;4.60;1.50;;;8.20;92.00;;;;;;5110282;28;20004;-54
2023/05/30 02:13:43;;;;;;;4.63;1.90;;;8.10;92.50;;;;;;5090286;28;20059;-53
2023/05/30 02:16:09;;;;;;;5.10;1.90;;;8.20;92.20;;;;;;5108642;28;20115;-52
2023/05/30 02:18:34;;;;;;;3.35;1.63;;;8.20;92.00;;;;;;5089021;28;20436;-52
2023/05/30 02:21:00;;;;;;;5.05;1.20;;;8.20;92.80;;;;;;5109919;28;20028;-54
2023/05/30 02:23:26;;;;;;;4.32;1.60;;;8.20;92.50;;;;;;5089981;28;20031;-48
2023/05/30 02:25:52;;;;;;;4.07;1.50;;;8.30;92.60;;;;;;5102464;28;20048;-53
2023/05/30 02:28:17;;;;;;;6.22;1.60;;;8.30;92.20;;;;;;5089464;28;20016;-51
2023/05/30 02:30:43;;;;;;;5.18;1.60;;;8.30;92.50;;;;;;5088004;28;20285;-52
2023/05/30 02:33:08;;;;;;;3.10;1.20;;;8.30;92.50;;;;;;5108952;28;20034;-52
2023/05/30 02:35:34;;;;;;;4.70;1.38;;;8.30;92.40;;;;;;5087925;28;20081;-52
2023/05/30 02:37:59;;;;;;;2.58;1.38;;;8.30;92.20;;;;;;5108918;28;20488;-48
2023/05/30 02:40:25;;;;;;;5.03;1.60;;;8.30;91.90;;;;;;5087983;28;20031;-54
2023/05/30 02:42:50;;;;;;;3.95;1.67;;;8.30;92.90;;;;;;5106581;28;20020;-54
2023/05/30 02:45:16;;;;;;;2.53;1.33;;;8.30;92.10;;;;;;5089784;28;20062;-49
2023/05/30 02:47:41;;;;;;;3.15;1.92;;;8.20;92.00;;;;;;5106831;28;20036;-55
2023/05/30 02:50:07;;;;;;;5.25;1.75;;;8.20;92.30;;;;;;5108902;28;20595;-50
2023/05/30 02:52:33;;;;;;;7.07;2.20;;;8.10;93.00;;;;;;5093506;28;20530;-58
2023/05/30 02:54:58;;;;;;;5.35;1.80;;;8.00;93.00;;;;;;5109445;28;20020;-57
2023/05/30 02:57:24;;;;;;;4.82;1.65;;;8.00;93.30;;;;;;5092237;28;20077;-57
2023/05/30 02:59:50;;;;;;;6.78;1.92;;;8.00;93.30;;;;;;5109274;28;20533;-57
2023/05/30 03:02:16;;;;;;;5.70;1.60;;;7.90;93.30;;;;;;5091024;28;20072;-58
2023/05/30 03:04:45;;;;;;;3.72;1.35;;;7.90;93.20;;;;;;5106827;28;20027;-57
2023/05/30 03:07:12;;;;;;;4.25;1.85;;;7.90;93.80;;;;;;5084545;28;20160;-58
2023/05/30 03:09:41;;;;;;;3.60;1.60;;;7.80;93.80;;;;;;5109592;28;20024;-59
2023/05/30 03:12:07;;;;;;;5.63;1.70;;;7.80;94.00;;;;;;5089245;28;20039;-58
2023/05/30 03:14:32;;;;;;;9.10;2.25;;;7.80;97.60;;;;;;5109211;28;20028;-58
2023/05/30 03:16:58;;;;;;;3.65;1.60;;;7.80;98.40;;;;;;5094587;28;20028;-57
2023/05/30 03:19:23;;;;;;;6.80;1.60;;;7.70;98.60;;;;;;5109414;28;20110;-56
2023/05/30 03:21:52;;;;;;;3.42;1.40;;;7.70;96.90;;;;;;5093140;28;20036;-59
2023/05/30 03:24:18;;;;;;;6.90;2.17;;;7.70;97.20;;;;;;5109245;28;20059;-57
2023/05/30 03:26:43;;;;;;;5.95;1.65;;;7.70;96.60;;;;;;5092491;28;20067;-57
2023/05/30 03:29:09;;;;;;;5.50;1.65;;;7.70;96.80;;;;;;5109247;28;20039;-58
2023/05/30 03:31:35;;;;;;;7.60;2.42;;;7.70;96.80;;;;;;5091336;28;20478;-59
2023/05/30 03:34:01;;;;;;;9.18;2.10;;;7.60;96.60;;;;;;5105991;28;20054;-57
2023/05/30 03:36:27;;;;;;;3.05;1.60;;;7.70;96.10;;;;;;5089610;28;20248;-58
2023/05/30 03:38:56;;;;;;;5.07;1.92;;;7.70;96.00;;;;;;5092954;28;20039;-57
2023/05/30 03:41:22;;;;;;;3.15;1.58;;;7.80;96.90;;;;;;5108493;28;20032;-58
2023/05/30 03:43:47;;;;;;;6.88;1.52;;;8.20;96.90;;;;;;5087301;28;20028;-57
2023/05/30 03:46:17;;;;;;;4.82;1.63;;;9.00;96.70;;;;;;5108210;28;20548;-57
2023/05/30 03:48:43;;;;;;;2.40;1.40;;;9.80;94.70;;;;;;5086987;28;20032;-58
2023/05/30 03:51:08;;;;;;;2.80;1.52;;;10.60;92.10;;;;;;5108418;28;20644;-58
2023/05/30 03:53:34;;;;;;;3.20;1.38;;;11.40;89.00;;;;;;5087535;28;20412;-59
2023/05/30 03:55:59;;;;;;;4.28;1.52;;;12.20;84.20;;;;;;5108376;28;20116;-59
2023/05/30 03:58:25;;;;;;;3.42;1.42;;;12.80;80.20;;;;;;5087383;28;20401;-59
2023/05/30 04:00:50;;;;;;;3.58;1.38;;;13.50;76.80;;;;;;5110327;28;20031;-59
2023/05/30 04:03:19;;;;;;;3.10;1.45;;;14.20;74.20;;;;;;5091385;28;20576;-59
2023/05/30 04:05:47;;;;;;;5.68;1.30;;;14.90;70.10;;;;;;5094656;28;20525;-57
2023/05/30 04:08:12;;;;;;;1.70;1.35;;;15.50;68.60;;;;;;5110278;28;20169;-58
2023/05/30 04:10:38;;;;;;;2.67;1.30;;;16.00;66.00;;;;;;5092723;27;20111;-58
2023/05/30 04:13:03;;;;;;;2.47;1.65;;;16.50;63.60;;;;;;5110261;28;20383;-59
2023/05/30 04:15:29;;;;;;;3.55;1.65;;;17.10;62.20;;;;;;5092548;28;20028;-58
2023/05/30 04:17:55;;;;;;;3.08;1.77;;;17.60;59.60;;;;;;5101093;28;20507;-59
2023/05/30 04:20:21;;;;;;;3.90;1.88;;;18.20;58.40;;;;;;5111997;28;20119;-58
2023/05/30 04:22:46;;;;;;;3.25;1.60;;;18.70;55.80;;;;;;5098296;28;20098;-58
2023/05/30 04:25:12;;;;;;;2.90;1.98;;;19.30;53.20;;;;;;5092258;28;20083;-56
2023/05/30 04:27:39;;;;;;;2.72;1.67;;;19.80;50.60;;;;;;5109931;28;20023;-58
2023/05/30 04:30:05;;;;;;;2.78;1.55;;;20.40;49.20;;;;;;5111250;28;20114;-59
2023/05/30 04:32:33;;;;;;;5.47;2.05;;;20.80;46.30;;;;;;5090333;28;20024;-58
2023/05/30 04:35:00;;;;;;;5.15;1.77;;;21.20;44.10;;;;;;5091686;28;20027;-58
2023/05/30 04:37:27;;;;;;;3.97;1.65;;;21.70;40.70;;;;;;5105025;28;20035;-60
2023/05/30 04:39:55;;;;;;;2.45;1.45;;;22.10;37.60;;;;;;5091735;28;20020;-58
2023/05/30 04:42:26;;;;;;;4.47;1.98;;;22.50;35.30;;;;;;5109736;28;20031;-59
2023/05/30 04:44:55;;;;;;;1.58;1.45;;;22.90;33.60;;;;;;5112028;28;20019;-59
2023/05/30 04:47:24;;;;;;;4.25;1.83;;;23.40;31.80;;;;;;5093601;28;20035;-59
2023/05/30 04:49:53;;;;;;;4.10;1.88;;;23.80;29.10;;;;;;5111729;28;20031;-59
2023/05/30 04:52:23;;;;;;;5.43;1.40;;;24.10;26.20;;;;;;5093552;28;20051;-59
2023/05/30 04:54:48;;;;;;;3.10;1.65;;;24.50;26.00;;;;;;5111782;28;20080;-59
2023/05/30 04:57:14;;;;;;;2.85;1.50;;;24.80;24.20;;;;;;5092876;28;20019;-59
2023/05/30 04:59:40;;;;;;;2.83;1.50;;;25.20;22.90;;;;;;5110271;28;20123;-58
2023/05/30 05:02:06;;;;;;;3.08;1.67;;;25.60;21.80;;;;;;5091474;28;20160;-59
2023/05/30 05:04:31;;;;;;;3.72;1.30;;;25.90;20.50;;;;;;5109344;28;20044;-59
2023/05/30 05:06:57;;;;;;;4.20;1.85;;;26.30;18.90;;;;;;5084684;28;20031;-58
2023/05/30 05:09:24;;;;;;;2.95;1.48;;;26.60;17.40;;;;;;5111316;28;20023;-59
2023/05/30 05:11:50;;;;;;;2.08;1.23;;;27.00;16.10;;;;;;5089975;28;20056;-59
2023/05/30 05:14:15;;;;;;;3.53;1.40;;;27.20;15.30;;;;;;5109254;28;20547;-59
2023/05/30 05:16:41;;;;;;;2.95;1.60;;;27.50;14.40;;;;;;5089915;28;20075;-58
2023/05/30 05:19:07;;;;;;;2.63;1.52;;;27.80;13.70;;;;;;5089632;28;20157;-59
2023/05/30 05:21:32;;;;;;;2.20;1.20;;;28.10;12.60;;;;;;5110247;28;20062;-60
2023/05/30 05:23:57;;;;;;;2.45;1.45;;;28.60;12.00;;;;;;5088122;28;20120;-59
2023/05/30 05:26:24;;;;;;;2.35;1.58;;;29.00;11.10;;;;;;5100632;28;20529;-60
2023/05/30 05:28:50;;;;;;;1.90;1.25;;;29.30;10.10;;;;;;5091594;28;20126;-60
2023/05/30 05:31:16;;;;;;;2.67;1.60;;;29.70;9.10;;;;;;5110414;28;20111;-60
2023/05/30 05:33:42;;;;;;;4.18;1.40;;;30.10;8.00;;;;;;5087889;28;20503;-58
2023/05/30 05:36:07;;;;;;;3.40;1.25;;;30.40;7.10;;;;;;5109866;28;20506;-59
2023/05/30 05:38:33;;;;;;;2.17;1.35;;;30.60;6.00;;;;;;5089126;28;20024;-60
2023/05/30 05:40:58;;;;;;;2.38;1.23;;;30.90;5.20;;;;;;5109906;28;20055;-60
2023/05/30 05:43:24;;;;;;;5.40;1.50;;;31.20;4.40;;;;;;5089018;28;20044;-60
2023/05/30 05:45:51;;;;;;;3.63;1.50;;;31.40;3.80;;;;;;5109635;28;20039;-59
2023/05/30 05:48:17;;;;;;;2.30;1.40;;;31.60;3.10;;;;;;5088820;28;20028;-60
2023/05/30 05:50:42;;;;;;;2.35;1.17;;;31.90;2.50;;;;;;5109832;28;20085;-59
2023/05/30 05:53:08;;;;;;;3.05;1.48;;;32.10;1.60;;;;;;5099238;28;20399;-60
2023/05/30 05:55:33;;;;;;;3.92;1.70;;;32.10;1.30;;;;;;5090627;28;20028;-60
2023/05/30 05:57:58;;;;;;;2.83;1.30;;;32.20;1.00;;;;;;5107789;28;20054;-60
2023/05/30 06:00:25;;;;;;;2.28;1.40;;;32.40;1.00;;;;;;5089183;28;20066;-59
2023/05/30 06:02:50;;;;;;;2.53;1.50;;;32.70;1.00;;;;;;5107553;28;20019;-59
2023/05/30 06:05:16;;;;;;;2.13;1.20;;;33.20;1.00;;;;;;5093000;28;20024;-59
2023/05/30 06:07:41;;;;;;;3.30;1.35;;;33.70;1.00;;;;;;5095534;28;20419;-59
2023/05/30 06:10:08;;;;;;;3.13;1.45;;;33.40;1.00;;;;;;5110092;28;20061;-59
2023/05/30 06:12:33;;;;;;;2.60;1.50;;;33.30;1.00;;;;;;5094241;28;20083;-61
2023/05/30 06:14:59;;;;;;;3.65;1.73;;;33.80;1.00;;;;;;5110194;28;20095;-59
2023/05/30 06:17:24;;;;;;;3.00;1.40;;;34.20;1.00;;;;;;5092915;28;20037;-59
2023/05/30 06:19:50;;;;;;;1.92;1.38;;;34.50;1.00;;;;;;5108520;28;20024;-59
2023/05/30 06:22:16;;;;;;;2.65;1.30;;;34.70;1.00;;;;;;5092009;28;20051;-59
2023/05/30 06:24:42;;;;;;;3.80;1.23;;;35.20;1.00;;;;;;5109887;27;20023;-58
2023/05/30 06:27:08;;;;;;;5.22;1.40;;;35.70;1.00;;;;;;5090102;28;20036;-60
2023/05/30 06:29:34;;;;;;;4.85;1.52;;;35.70;1.00;;;;;;5110100;28;20027;-59
2023/05/30 06:32:00;;;;;;;4.78;1.60;;;34.20;1.00;;;;;;5089066;28;20604;-59
2023/05/30 06:34:25;;;;;;;2.20;1.17;;;33.90;1.00;;;;;;5109977;28;20037;-59
2023/05/30 06:36:51;;;;;;;2.30;1.65;;;34.60;1.00;;;;;;5089812;28;20036;-59
2023/05/30 06:39:16;;;;;;;2.00;1.13;;;35.20;1.00;;;;;;5089544;28;20156;-59
2023/05/30 06:41:44;;;;;;;3.45;1.40;;;35.70;1.00;;;;;;5096285;28;20028;-59
2023/05/30 06:44:09;;;;;;;2.50;1.35;;;36.40;1.00;;;;;;5088612;28;20487;-59
2023/05/30 06:46:36;;;;;;;2.67;1.40;;;37.00;1.00;;;;;;5108511;28;20036;-59
2023/05/30 06:49:01;;;;;;;5.00;1.40;;;37.40;1.00;;;;;;5086720;28;20035;-59
2023/05/30 06:51:27;;;;;;;1.70;1.35;;;37.80;1.00;;;;;;5107625;28;20064;-59
2023/05/30 06:53:52;;;;;;;3.33;1.05;;;37.80;1.00;;;;;;5085040;28;20039;-59
2023/05/30 06:56:18;;;;;;;3.20;1.38;;;37.90;1.00;;;;;;5107650;28;20024;-59
2023/05/30 06:58:43;;;;;;;2.90;1.20;;;38.50;1.00;;;;;;5086647;28;20563;-60
2023/05/30 07:01:09;;;;;;;3.28;1.30;;;38.90;1.00;;;;;;5107396;28;20518;-60
2023/05/30 07:03:35;;;;;;;2.47;1.33;;;39.20;1.00;;;;;;5086937;28;20399;-60
2023/05/30 07:06:01;;;;;;;3.17;1.25;;;39.30;1.00;;;;;;5105038;28;20042;-59
2023/05/30 07:08:27;;;;;;;1.58;1.10;;;39.50;1.00;;;;;;5086854;28;20109;-59
2023/05/30 07:10:52;;;;;;;1.98;1.10;;;39.40;1.00;;;;;;5107377;28;20487;-59
2023/05/30 07:13:18;;;;;;;3.05;1.13;;;39.40;1.00;;;;;;5087303;28;20032;-59
2023/05/30 07:15:44;;;;;;;3.92;1.50;;;39.30;1.00;;;;;;5108074;28;20039;-59
2023/05/30 07:18:10;;;;;;;3.72;1.20;;;39.50;1.00;;;;;;5086652;28;20097;-59
2023/05/30 07:20:35;;;;;;;2.70;1.23;;;39.60;1.00;;;;;;5107791;28;20036;-60
2023/05/30 07:23:01;;;;;;;1.90;1.27;;;39.60;1.00;;;;;;5095855;28;20527;-60
2023/05/30 07:25:26;;;;;;;4.30;1.33;;;39.50;1.00;;;;;;5089336;28;20451;-59
2023/05/30 07:27:52;;;;;;;1.35;0.90;;;39.90;1.00;;;;;;5098025;28;20404;-59
2023/05/30 07:30:17;;;;;;;1.60;0.90;;;40.40;1.00;;;;;;5107380;28;20058;-60
2023/05/30 07:32:43;;;;;;;3.08;1.20;;;40.80;1.00;;;;;;5093451;28;20027;-59
2023/05/30 07:35:08;;;;;;;2.70;1.23;;;39.80;1.00;;;;;;5108878;28;20042;-60
2023/05/30 07:37:37;;;;;;;1.25;0.93;;;39.60;1.00;;;;;;5096333;28;20078;-60
2023/05/30 07:40:05;;;;;;;3.42;1.52;;;39.40;1.00;;;;;;5110780;28;20047;-59
2023/05/30 07:42:31;;;;;;;2.40;1.25;;;37.30;1.00;;;;;;5095727;28;20023;-60
2023/05/30 07:44:57;;;;;;;1.65;1.00;;;37.50;1.00;;;;;;5112096;28;20162;-59
2023/05/30 07:47:22;;;;;;;1.92;1.17;;;38.10;1.00;;;;;;5094269;28;20630;-59
2023/05/30 07:49:48;;;;;;;2.15;1.25;;;38.20;1.00;;;;;;5111484;28;20055;-59
2023/05/30 07:52:13;;;;;;;2.40;1.27;;;38.60;1.00;;;;;;5093026;28;20031;-60
2023/05/30 07:54:39;;;;;;;2.70;1.40;;;39.00;1.00;;;;;;5111684;28;20404;-59
2023/05/30 07:57:06;;;;;;;3.03;1.58;;;39.00;1.00;;;;;;5091861;28;20032;-59
2023/05/30 07:59:32;;;;;;;2.53;1.30;;;38.40;1.00;;;;;;5090419;28;20025;-61
2023/05/30 08:01:57;;;;;;;1.85;1.20;;;38.10;1.00;;;;;;5108839;28;20051;-60
2023/05/30 08:04:23;;;;;;;3.30;1.00;;;37.90;1.00;;;;;;5111485;28;20016;-60
2023/05/30 08:06:48;;;;;;;1.88;1.15;;;37.90;1.00;;;;;;5085282;28;20230;-60
2023/05/30 08:09:14;;;;;;;2.67;1.20;;;37.70;1.00;;;;;;5109959;28;20038;-61
2023/05/30 08:11:39;;;;;;;1.75;0.93;;;37.80;1.00;;;;;;5091066;28;20068;-60
2023/05/30 08:14:05;;;;;;;2.35;1.20;;;37.90;1.00;;;;;;5090354;28;20046;-61
2023/05/30 08:16:32;;;;;;;1.83;0.93;;;37.70;1.00;;;;;;5110303;28;20069;-61
2023/05/30 08:18:58;;;;;;;1.90;1.17;;;37.20;1.00;;;;;;5088744;28;20700;-61
2023/05/30 08:21:24;;;;;;;1.23;1.00;;;35.80;1.00;;;;;;5110723;28;20511;-61
2023/05/30 08:23:49;;;;;;;2.42;1.45;;;35.70;1.00;;;;;;5092812;28;20388;-61
2023/05/30 08:26:16;;;;;;;1.90;1.25;;;35.80;1.00;;;;;;5103094;28;20044;-63
2023/05/30 08:28:42;;;;;;;4.05;1.20;;;35.20;1.00;;;;;;5095186;28;20408;-61
2023/05/30 08:31:08;;;;;;;2.70;1.30;;;34.00;1.00;;;;;;5111727;28;20036;-61
2023/05/30 08:33:35;;;;;;;2.25;1.10;;;33.60;1.00;;;;;;5089313;28;20024;-61
2023/05/30 08:36:01;;;;;;;5.50;1.60;;;32.80;1.00;;;;;;5094544;28;20438;-61
2023/05/30 08:38:26;;;;;;;4.10;0.98;;;31.60;1.00;;;;;;5092473;28;20170;-61
2023/05/30 08:40:53;;;;;;;4.05;1.50;;;31.30;1.00;;;;;;5109578;28;20061;-60
2023/05/30 08:43:19;;;;;;;1.90;1.30;;;29.90;1.00;;;;;;5112540;28;20024;-61
2023/05/30 08:45:46;;;;;;;2.90;1.35;;;29.40;1.00;;;;;;5092332;28;20541;-61
2023/05/30 08:48:13;;;;;;;1.80;1.20;;;29.60;1.00;;;;;;5090208;28;20039;-60
2023/05/30 08:50:40;;;;;;;2.25;1.10;;;29.70;1.00;;;;;;5111750;28;20043;-61
2023/05/30 08:53:14;;;;;;;2.83;1.08;;;29.90;1.00;;;;;;5089034;28;20641;-61
2023/05/30 08:55:46;;;;;;;1.63;1.13;;;30.30;1.00;;;;;;5087402;28;20025;-59
2023/05/30 08:58:24;;;;;;;4.53;1.48;;;30.40;1.00;;;;;;5090050;28;20036;-52
2023/05/30 09:00:52;;;;;;;1.95;1.27;;;30.20;1.00;;;;;;5071204;28;20052;-52
2023/05/30 09:03:20;;;;;;;2.17;1.20;;;30.20;1.00;;;;;;5070146;28;20584;-51
2023/05/30 09:05:46;;;;;;;2.35;1.40;;;30.10;1.00;;;;;;5094381;28;20040;-53
2023/05/30 09:08:13;;;;;;;3.40;1.30;;;29.50;1.00;;;;;;5089918;28;20027;-55
2023/05/30 09:10:50;;;;;;;3.08;1.55;;;29.40;1.00;;;;;;5111571;28;20483;-50
2023/05/30 09:13:16;;;;;;;2.47;1.35;;;29.00;1.00;;;;;;5089570;28;20030;-55
2023/05/30 09:15:42;;;;;;;3.45;1.30;;;28.80;1.00;;;;;;5111011;28;20114;-53
2023/05/30 09:18:08;;;;;;;3.65;1.30;;;28.80;1.00;;;;;;5089964;28;20016;-51
2023/05/30 09:20:37;;;;;;;1.38;0.82;;;29.10;1.00;;;;;;5111010;28;20065;-54
2023/05/30 09:23:02;;;;;;;1.90;1.23;;;29.30;1.00;;;;;;5089584;28;20028;-53
2023/05/30 09:25:44;;;;;;;1.75;1.10;;;29.30;1.00;;;;;;5108476;28;20051;-52
2023/05/30 09:28:10;;;;;;;2.53;1.35;;;28.80;1.00;;;;;;5089181;28;20074;-55
2023/05/30 09:31:01;;;;;;;3.47;1.40;;;28.10;1.00;;;;;;5109459;28;20047;-53
2023/05/30 09:33:51;;;;;;;2.03;1.27;;;28.20;1.00;;;;;;5070613;28;20197;-55
2023/05/30 09:36:18;;;;;;;2.25;1.10;;;28.70;1.00;;;;;;5065491;28;20027;-53
2023/05/30 09:38:58;;;;;;;4.65;1.67;;;28.40;1.00;;;;;;5111637;28;20019;-55
2023/05/30 09:41:26;;;;;;;3.28;1.50;;;27.80;1.00;;;;;;5077792;28;20027;-52
2023/05/30 09:43:53;;;;;;;3.47;1.75;;;27.30;1.00;;;;;;5111032;28;20402;-54
2023/05/30 09:46:21;;;;;;;3.80;1.90;;;26.40;1.00;;;;;;5092830;28;20102;-51
2023/05/30 09:48:47;;;;;;;3.80;1.90;;;25.80;1.00;;;;;;5110979;28;20016;-51
2023/05/30 09:51:15;;;;;;;2.63;1.40;;;25.10;1.00;;;;;;5090999;28;20395;-54
2023/05/30 09:54:00;;;;;;;2.13;1.50;;;25.00;1.00;;;;;;5111210;28;20028;-52
2023/05/30 09:56:44;;;;;;;2.10;1.43;;;25.20;1.00;;;;;;5078015;28;20032;-54
2023/05/30 09:59:11;;;;;;;5.68;1.73;;;25.70;1.00;;;;;;5110420;28;20049;-51
2023/05/30 10:01:40;;;;;;;4.82;1.70;;;26.00;1.00;;;;;;5095357;28;20027;-52
2023/05/30 10:04:13;;;;;;;7.00;2.05;;;25.60;1.00;;;;;;5110745;28;20016;-51
2023/05/30 10:06:41;;;;;;;4.03;1.73;;;25.20;1.00;;;;;;5094876;28;20020;-53
2023/05/30 10:09:08;;;;;;;2.17;1.67;;;24.50;1.00;;;;;;5110506;28;20023;-53
2023/05/30 10:11:37;;;;;;;3.55;1.65;;;24.00;1.00;;;;;;5094833;28;20020;-48
2023/05/30 10:14:02;;;;;;;3.80;1.83;;;23.80;1.00;;;;;;5110664;28;20084;-52
2023/05/30 10:16:32;;;;;;;3.63;1.60;;;23.70;1.00;;;;;;5092254;28;20027;-48
2023/05/30 10:19:01;;;;;;;3.38;1.70;;;23.70;1.00;;;;;;5110435;28;20027;-52
2023/05/30 10:21:30;;;;;;;3.83;1.35;;;23.50;1.00;;;;;;5092948;28;20414;-50
2023/05/30 10:23:57;;;;;;;4.15;1.60;;;23.30;1.00;;;;;;5110214;28;20027;-48
2023/05/30 10:26:30;;;;;;;4.32;1.30;;;23.40;1.00;;;;;;5092632;28;20039;-51
2023/05/30 10:28:56;;;;;;;3.72;2.05;;;23.20;1.00;;;;;;5069156;28;20540;-48
2023/05/30 10:31:24;;;;;;;2.65;1.42;;;23.00;1.00;;;;;;5106530;28;20487;-49
2023/05/30 10:33:51;;;;;;;2.30;1.52;;;23.10;1.00;;;;;;5107302;28;20023;-52
2023/05/30 10:36:17;;;;;;;4.68;1.95;;;22.80;1.00;;;;;;5103948;28;20031;-53
2023/05/30 10:38:51;;;;;;;3.72;1.70;;;22.70;1.00;;;;;;5084947;28;20028;-51
2023/05/30 10:41:29;;;;;;;4.35;1.60;;;22.30;1.00;;;;;;5081747;28;20056;-52
2023/05/30 10:44:13;;;;;;;6.72;2.15;;;22.20;1.00;;;;;;5067854;28;20040;-50
2023/05/30 10:47:16;;;;;;;4.03;2.05;;;21.90;1.00;;;;;;5070160;28;20364;-54
2023/05/30 10:49:41;;;;;;;3.33;1.65;;;22.20;1.30;;;;;;5108270;28;20491;-52
2023/05/30 10:52:09;;;;;;;4.60;1.73;;;22.40;1.00;;;;;;5092715;28;20138;-50
2023/05/30 10:54:36;;;;;;;3.35;1.60;;;22.10;1.00;;;;;;5108300;28;20331;-52
2023/05/30 10:57:27;;;;;;;2.45;1.80;;;21.80;1.00;;;;;;5091982;28;20023;-51
2023/05/30 10:59:54;;;;;;;4.47;1.55;;;21.70;1.00;;;;;;5108017;28;20344;-50
2023/05/30 11:02:33;;;;;;;3.45;1.58;;;21.50;1.00;;;;;;5094439;28;20036;-53
2023/05/30 11:05:05;;;;;;;7.45;2.28;;;21.50;1.00;;;;;;5071219;28;20146;-53
2023/05/30 11:07:40;;;;;;;4.55;2.05;;;21.30;1.00;;;;;;5106261;28;20066;-55
2023/05/30 11:10:08;;;;;;;2.95;1.90;;;21.10;1.00;;;;;;5066510;28;20056;-50
2023/05/30 11:12:39;;;;;;;3.38;1.50;;;21.10;1.00;;;;;;5105439;28;20457;-53
2023/05/30 11:15:05;;;;;;;3.08;1.50;;;21.30;1.00;;;;;;5067312;28;20028;-52
2023/05/30 11:17:36;;;;;;;4.25;2.10;;;21.10;1.00;;;;;;5105280;28;20016;-55
2023/05/30 11:20:14;;;;;;;2.45;1.42;;;21.10;1.00;;;;;;5067619;28;20142;-53
2023/05/30 11:22:41;;;;;;;2.60;1.42;;;21.20;1.00;;;;;;5087434;28;20122;-52
2023/05/30 11:25:23;;;;;;;3.72;1.80;;;21.20;1.00;;;;;;5087796;28;20051;-54
2023/05/30 11:28:01;;;;;;;4.47;1.90;;;21.10;1.60;;;;;;5089437;28;20518;-52
2023/05/30 11:30:26;;;;;;;3.17;1.63;;;21.10;1.00;;;;;;5087945;28;20546;-55
2023/05/30 11:32:58;;;;;;;3.95;1.63;;;21.30;1.00;;;;;;5092809;28;20024;-55
2023/05/30 11:35:24;;;;;;;2.85;1.90;;;21.10;1.60;;;;;;5067222;28;20304;-54
2023/05/30 11:37:50;;;;;;;6.55;2.08;;;21.00;1.00;;;;;;5092823;28;20090;-54
2023/05/30 11:40:16;;;;;;;4.35;1.58;;;21.00;1.00;;;;;;5088510;28;20032;-55
2023/05/30 11:42:42;;;;;;;7.78;2.00;;;21.10;1.00;;;;;;5096674;28;20031;-51
2023/05/30 11:45:09;;;;;;;4.25;1.83;;;21.10;1.00;;;;;;5087789;28;20039;-50
2023/05/30 11:47:34;;;;;;;2.55;1.42;;;20.90;1.00;;;;;;5086583;28;20038;-54
2023/05/30 11:50:00;;;;;;;3.35;1.65;;;21.00;1.00;;;;;;5086060;28;20110;-56
2023/05/30 11:52:25;;;;;;;3.45;1.73;;;21.10;1.00;;;;;;5107131;28;20028;-51
2023/05/30 11:54:58;;;;;;;2.22;1.30;;;21.10;1.00;;;;;;5085967;28;20035;-52
2023/05/30 11:57:23;;;;;;;4.95;1.98;;;21.10;2.00;;;;;;5067312;28;20054;-54
2023/05/30 11:59:49;;;;;;;4.85;2.28;;;21.10;1.20;;;;;;5090646;28;20496;-52
2023/05/30 12:02:15;;;;;;;4.03;1.75;;;21.10;1.00;;;;;;5107304;28;20521;-52
2023/05/30 12:04:42;;;;;;;3.55;1.75;;;21.10;1.00;;;;;;5088158;28;20495;-54
2023/05/30 12:07:08;;;;;;;3.15;1.70;;;21.20;1.00;;;;;;5105459;28;20027;-55
2023/05/30 12:09:41;;;;;;;4.15;1.75;;;21.30;1.00;;;;;;5086153;28;20032;-52
2023/05/30 12:12:07;;;;;;;5.55;2.28;;;21.30;1.70;;;;;;5106734;28;20462;-52
2023/05/30 12:14:42;;;;;;;2.90;1.50;;;21.30;2.30;;;;;;5097044;28;20059;-55
2023/05/30 12:17:16;;;;;;;4.97;1.50;;;21.40;2.10;;;;;;5087448;28;20561;-53
2023/05/30 12:19:43;;;;;;;4.55;1.70;;;21.40;1.40;;;;;;5092620;28;20111;-55
2023/05/30 12:22:09;;;;;;;3.00;1.75;;;21.40;1.80;;;;;;5109634;28;20035;-55
2023/05/30 12:24:36;;;;;;;3.70;1.50;;;21.20;1.50;;;;;;5089959;28;20027;-55
2023/05/30 12:27:02;;;;;;;4.78;2.00;;;21.20;1.10;;;;;;5096319;28;20089;-54
2023/05/30 12:29:32;;;;;;;1.70;1.17;;;21.20;1.30;;;;;;5108688;28;20456;-51
2023/05/30 12:31:57;;;;;;;2.38;1.40;;;21.30;1.80;;;;;;5111212;27;20039;-55
2023/05/30 12:34:23;;;;;;;4.55;2.05;;;21.40;1.30;;;;;;5090628;28;20592;-54
2023/05/30 12:36:49;;;;;;;5.35;1.77;;;21.40;2.10;;;;;;5110859;28;20142;-55
2023/05/30 12:39:15;;;;;;;9.05;2.17;;;21.20;2.10;;;;;;5094349;28;20030;-55
2023/05/30 12:41:41;;;;;;;3.70;1.60;;;21.10;2.60;;;;;;5111088;28;20024;-52
2023/05/30 12:44:07;;;;;;;3.95;1.63;;;21.30;2.60;;;;;;5088274;28;20085;-55
2023/05/30 12:46:36;;;;;;;3.97;1.67;;;21.40;3.30;;;;;;5111188;28;20023;-53
2023/05/30 12:49:03;;;;;;;3.10;1.80;;;21.30;3.90;;;;;;5088866;28;20531;-49
2023/05/30 12:51:28;;;;;;;3.50;1.40;;;21.40;3.00;;;;;;5110786;28;20043;-54
2023/05/30 12:53:54;;;;;;;6.03;1.98;;;21.30;2.90;;;;;;5090900;28;20031;-54
2023/05/30 12:56:20;;;;;;;3.55;1.98;;;21.40;3.80;;;;;;5108512;28;20027;-53
2023/05/30 12:58:45;;;;;;;4.15;1.70;;;21.40;2.90;;;;;;5089837;27;20032;-56